< < Back
Terminal Aerodrome Forecast


Current Version              Previous Versions:   1  2  3  4  5  6  7  8  9  

Terminal Aerodrome Forecast

123
FTUS42 KFFC 020527
TAFCSG
TAF
KCSG 020527Z 0206/0306 27006KT P6SM -SHRA SCT025 BKN100
      TEMPO 0206/0207 4SM TSRA FEW020 BKN030CB
     FM020700 26005KT P6SM BKN015 BKN050
     FM021400 27008KT P6SM BKN050
     FM021600 25008KT P6SM VCSH BKN050 PROB30 0218/0224 6SM TSRA
      BKN035CB
     FM030000 24006KT P6SM BKN100=



Latest METAR

062
SAUS70 KWBC 021800
MTRCSG
METAR KCSG 021751Z COR 29008G16KT 10SM FEW040 31/22 A3001 RMK AO2 SLP158
T03110217 10311 20211 58017


USA.gov is the U.S. government's official web portal to all federal, state and local government web resources and services.